createdAt,value
2022-09-07T00:01:18.053Z,5.83
2022-09-07T00:03:45.689Z,5.87
2022-09-07T00:06:15.054Z,6.10
2022-09-07T00:08:43.747Z,6.30
2022-09-07T00:11:14.585Z,6.17
2022-09-07T00:13:44.705Z,9.13
2022-09-07T00:16:16.169Z,6.20
2022-09-07T00:18:46.334Z,6.83
2022-09-07T00:21:17.966Z,5.67
2022-09-07T00:23:47.569Z,6.33
2022-09-07T00:26:18.866Z,5.90
2022-09-07T00:28:46.995Z,5.70
2022-09-07T00:31:17.739Z,6.30
2022-09-07T00:33:47.964Z,5.30
2022-09-07T00:36:18.065Z,6.07
2022-09-07T00:38:45.517Z,5.80
2022-09-07T00:41:13.404Z,7.60
2022-09-07T00:43:44.906Z,8.37
2022-09-07T00:46:16.288Z,5.60
2022-09-07T00:48:53.371Z,8.30
2022-09-07T00:51:29.366Z,5.70
2022-09-07T00:54:02.951Z,5.37
2022-09-07T00:56:36.342Z,6.13
2022-09-07T00:59:04.519Z,6.37
2022-09-07T01:01:34.285Z,6.37
2022-09-07T01:04:03.215Z,6.10
2022-09-07T01:06:36.759Z,6.13
2022-09-07T01:09:08.040Z,5.77
2022-09-07T01:11:36.948Z,5.13
2022-09-07T01:14:08.006Z,5.80
2022-09-07T01:17:03.505Z,6.37
2022-09-07T01:20:03.882Z,6.97
2022-09-07T01:23:02.159Z,5.63
2022-09-07T01:25:43.006Z,5.70
2022-09-07T01:28:19.729Z,6.57
2022-09-07T01:30:56.849Z,5.87
2022-09-07T01:33:49.549Z,6.10
2022-09-07T01:36:26.715Z,5.50
2022-09-07T01:38:59.033Z,5.87
2022-09-07T01:41:35.878Z,5.90
2022-09-07T01:44:12.598Z,6.00
2022-09-07T01:46:46.362Z,6.27
2022-09-07T01:49:21.750Z,7.07
2022-09-07T01:51:55.774Z,5.30
2022-09-07T01:54:32.336Z,7.13
2022-09-07T01:57:06.566Z,5.87
2022-09-07T01:59:43.248Z,5.87
2022-09-07T02:02:16.706Z,6.60
2022-09-07T02:04:52.965Z,8.10
2022-09-07T02:07:27.986Z,6.03
2022-09-07T02:10:02.129Z,5.80
2022-09-07T02:12:38.934Z,6.03
2022-09-07T02:15:15.483Z,7.77
2022-09-07T02:17:49.620Z,6.30
2022-09-07T02:20:24.346Z,7.03
2022-09-07T02:23:05.400Z,5.70
2022-09-07T02:25:41.026Z,7.17
2022-09-07T02:28:14.662Z,6.57
2022-09-07T02:30:44.411Z,5.80
2022-09-07T02:33:12.032Z,6.27
2022-09-07T02:35:39.622Z,6.43
2022-09-07T02:38:08.319Z,6.00
2022-09-07T02:40:36.296Z,6.30
2022-09-07T02:43:08.615Z,6.93
2022-09-07T02:45:59.773Z,6.33
2022-09-07T02:48:42.047Z,6.70
2022-09-07T02:51:18.286Z,6.63
2022-09-07T02:54:27.317Z,6.50
2022-09-07T02:57:10.455Z,6.80
2022-09-07T02:59:56.313Z,6.13
2022-09-07T03:02:35.115Z,8.10
2022-09-07T03:05:12.968Z,8.77
2022-09-07T03:07:51.420Z,8.37
2022-09-07T03:10:19.441Z,9.50
2022-09-07T03:12:49.989Z,8.47
2022-09-07T03:15:21.512Z,8.30
2022-09-07T03:17:50.827Z,6.17
2022-09-07T03:20:19.694Z,8.13
2022-09-07T03:22:50.339Z,9.30
2022-09-07T03:25:19.042Z,7.63
2022-09-07T03:27:46.467Z,7.27
2022-09-07T03:30:14.825Z,7.83
2022-09-07T03:32:42.441Z,7.20
2022-09-07T03:35:14.321Z,7.73
2022-09-07T03:37:42.039Z,7.20
2022-09-07T03:40:12.184Z,8.03
2022-09-07T03:42:39.990Z,7.47
2022-09-07T03:45:09.665Z,7.60
2022-09-07T03:47:38.135Z,11.00
2022-09-07T03:50:07.322Z,6.60
2022-09-07T03:52:37.154Z,7.20
2022-09-07T03:55:05.680Z,7.67
2022-09-07T03:57:33.067Z,9.07
2022-09-07T04:00:00.457Z,7.70
2022-09-07T04:02:27.969Z,8.43
2022-09-07T04:04:55.322Z,8.50
2022-09-07T04:07:22.738Z,7.87
2022-09-07T04:09:51.489Z,7.80
2022-09-07T04:12:18.899Z,8.27
2022-09-07T04:14:46.444Z,8.10
2022-09-07T04:17:13.802Z,8.43
2022-09-07T04:19:41.250Z,8.03
2022-09-07T04:22:08.604Z,7.93
2022-09-07T04:24:35.973Z,8.13
2022-09-07T04:27:04.824Z,10.30
2022-09-07T04:29:32.250Z,10.10
2022-09-07T04:31:59.654Z,8.30
2022-09-07T04:34:27.210Z,7.83
2022-09-07T04:36:54.498Z,8.90
2022-09-07T04:39:21.839Z,10.93
2022-09-07T04:41:49.169Z,11.23
2022-09-07T04:44:17.933Z,8.27
2022-09-07T04:46:45.379Z,8.97
2022-09-07T04:49:12.802Z,8.17
2022-09-07T04:51:42.899Z,7.33
2022-09-07T04:54:11.533Z,8.10
2022-09-07T04:56:39.438Z,8.47
2022-09-07T04:59:06.915Z,9.60
2022-09-07T05:01:35.801Z,9.67
2022-09-07T05:04:04.803Z,7.67
2022-09-07T05:06:32.614Z,9.33
2022-09-07T05:09:00.764Z,8.27
2022-09-07T05:11:29.911Z,8.37
2022-09-07T05:13:58.106Z,8.77
2022-09-07T05:16:27.111Z,8.37
2022-09-07T05:18:58.462Z,10.53
2022-09-07T05:21:28.916Z,10.70
2022-09-07T05:23:58.813Z,9.67
2022-09-07T05:26:28.909Z,10.17
2022-09-07T05:31:43.853Z,10.80
2022-09-07T05:36:55.715Z,11.30
2022-09-07T05:39:23.194Z,11.10
2022-09-07T05:41:50.535Z,17.07
2022-09-07T05:47:05.764Z,9.93
2022-09-07T05:49:34.608Z,11.13
2022-09-07T05:52:02.264Z,10.87
2022-09-07T05:54:29.561Z,12.43
2022-09-07T05:56:56.919Z,11.83
2022-09-07T05:59:24.258Z,15.03
2022-09-07T06:01:51.727Z,11.17
2022-09-07T06:04:19.611Z,13.37
2022-09-07T06:07:11.057Z,10.53
2022-09-07T06:12:24.067Z,13.37
2022-09-07T06:14:51.426Z,14.03
2022-09-07T06:17:19.759Z,11.93
2022-09-07T06:19:47.137Z,11.97
2022-09-07T06:22:16.350Z,13.20
2022-09-07T06:24:43.752Z,12.20
2022-09-07T06:27:11.413Z,13.03
2022-09-07T06:29:38.808Z,11.87
2022-09-07T06:34:53.858Z,13.90
2022-09-07T06:37:22.672Z,12.87
2022-09-07T06:39:50.119Z,12.70
2022-09-07T06:42:17.567Z,11.37
2022-09-07T06:44:44.955Z,12.53
2022-09-07T06:47:12.440Z,11.93
2022-09-07T06:49:39.874Z,14.17
2022-09-07T06:52:07.285Z,12.03
2022-09-07T06:57:23.559Z,13.17
2022-09-07T06:59:50.954Z,11.23
2022-09-07T07:02:21.656Z,12.73
2022-09-07T07:04:50.190Z,11.80
2022-09-07T07:07:17.642Z,11.63
2022-09-07T07:09:46.422Z,12.20
2022-09-07T07:12:13.746Z,12.30
2022-09-07T07:14:44.618Z,15.80
2022-09-07T07:17:12.666Z,13.10
2022-09-07T07:19:40.074Z,16.53
2022-09-07T07:22:23.983Z,12.80
2022-09-07T07:24:56.187Z,12.50
2022-09-07T07:27:23.718Z,19.27
2022-09-07T07:29:52.445Z,16.23
2022-09-07T07:32:20.062Z,11.97
2022-09-07T07:34:47.439Z,12.67
2022-09-07T07:37:16.152Z,13.00
2022-09-07T07:42:33.934Z,12.30
2022-09-07T07:47:51.331Z,16.03
2022-09-07T07:50:34.943Z,12.60
2022-09-07T07:55:50.693Z,12.43
2022-09-07T07:58:19.909Z,11.40
2022-09-07T08:00:55.863Z,12.63
2022-09-07T08:03:25.319Z,15.53
2022-09-07T08:05:53.306Z,15.97
2022-09-07T08:08:23.340Z,12.97
2022-09-07T08:10:51.216Z,12.57
2022-09-07T08:13:21.420Z,12.10
2022-09-07T08:15:49.000Z,13.70
2022-09-07T08:18:17.609Z,15.60
2022-09-07T08:20:44.924Z,13.33
2022-09-07T08:23:12.197Z,14.50
2022-09-07T08:25:48.495Z,11.80
2022-09-07T08:28:15.762Z,12.00
2022-09-07T08:30:44.452Z,13.73
2022-09-07T08:33:11.641Z,11.27
2022-09-07T08:35:39.000Z,10.83
2022-09-07T08:38:06.427Z,11.87
2022-09-07T08:40:38.191Z,11.27
2022-09-07T08:43:19.597Z,11.77
2022-09-07T08:45:54.599Z,10.20
2022-09-07T08:48:32.187Z,11.87
2022-09-07T08:51:10.321Z,11.47
2022-09-07T08:53:46.599Z,10.60
2022-09-07T08:56:22.287Z,11.80
2022-09-07T08:58:53.209Z,12.23
2022-09-07T09:01:32.287Z,9.93
2022-09-07T09:04:17.223Z,12.03
2022-09-07T09:07:01.356Z,9.87
2022-09-07T09:09:47.024Z,12.50
2022-09-07T09:12:27.715Z,12.00
2022-09-07T09:15:16.201Z,12.17
2022-09-07T09:17:56.847Z,25.57
2022-09-07T09:20:31.598Z,10.85
2022-09-07T09:23:12.351Z,18.40
2022-09-07T09:25:51.076Z,12.90
2022-09-07T09:28:18.751Z,13.10
2022-09-07T09:30:47.905Z,12.20
2022-09-07T09:33:20.598Z,10.80
2022-09-07T09:35:50.094Z,8.57
2022-09-07T09:38:35.600Z,9.75
2022-09-07T09:41:08.769Z,36.53
2022-09-07T09:43:43.491Z,10.95
2022-09-07T09:46:23.195Z,10.02
2022-09-07T09:48:56.874Z,11.38
2022-09-07T09:54:25.986Z,8.82
2022-09-07T09:56:53.562Z,8.02
2022-09-07T10:05:33.386Z,7.40
2022-09-07T10:08:01.441Z,6.63
2022-09-07T10:10:30.175Z,6.68
2022-09-07T10:12:58.101Z,6.72
2022-09-07T10:15:39.688Z,6.78
2022-09-07T10:18:18.751Z,6.75
2022-09-07T10:20:48.091Z,7.03
2022-09-07T10:23:23.402Z,6.72
2022-09-07T10:25:51.175Z,7.15
2022-09-07T10:28:21.728Z,8.38
2022-09-07T10:31:15.278Z,7.57
2022-09-07T10:36:53.609Z,24.88
2022-09-07T10:39:27.804Z,6.90
2022-09-07T10:42:06.104Z,8.40
2022-09-07T10:44:55.444Z,6.33
2022-09-07T10:47:42.726Z,8.63
2022-09-07T10:50:24.978Z,6.63
2022-09-07T10:53:39.601Z,9.70
2022-09-07T10:56:11.512Z,7.00
2022-09-07T10:59:03.489Z,9.00
2022-09-07T11:01:48.704Z,8.43
2022-09-07T11:04:41.106Z,6.43
2022-09-07T11:07:29.143Z,7.00
2022-09-07T11:10:11.954Z,8.83
2022-09-07T11:12:44.424Z,4.13
2022-09-07T11:15:24.481Z,4.17
2022-09-07T11:17:56.938Z,3.73
2022-09-07T11:20:31.441Z,2.87
2022-09-07T11:23:12.769Z,2.67
2022-09-07T11:25:52.182Z,3.20
2022-09-07T11:28:27.520Z,2.90
2022-09-07T11:31:00.728Z,3.30
2022-09-07T11:33:35.146Z,3.37
2022-09-07T11:36:12.733Z,2.60
2022-09-07T11:38:48.261Z,3.23
2022-09-07T11:41:28.887Z,2.70
2022-09-07T11:44:06.669Z,2.50
2022-09-07T11:46:42.019Z,3.20
2022-09-07T11:49:21.228Z,3.00
2022-09-07T11:51:56.301Z,2.67
2022-09-07T11:54:38.847Z,3.93
2022-09-07T11:57:37.403Z,3.70
2022-09-07T12:00:13.813Z,2.53
2022-09-07T12:03:11.620Z,3.03
2022-09-07T12:06:11.259Z,2.60
2022-09-07T12:09:06.339Z,4.93
2022-09-07T12:12:07.139Z,5.90
2022-09-07T12:14:53.724Z,3.30
2022-09-07T12:17:43.858Z,2.87
2022-09-07T12:20:15.180Z,4.00
2022-09-07T12:23:05.266Z,3.23
2022-09-07T12:25:34.816Z,2.90
2022-09-07T12:28:02.659Z,2.80
2022-09-07T12:30:56.498Z,2.60
2022-09-07T12:33:31.784Z,3.50
2022-09-07T12:36:00.903Z,3.30
2022-09-07T12:39:26.793Z,11.97
2022-09-07T12:42:37.512Z,4.10
2022-09-07T12:45:49.259Z,2.97
2022-09-07T12:48:46.788Z,3.40
2022-09-07T12:54:28.493Z,2.80
2022-09-07T13:00:11.861Z,2.60
2022-09-07T13:03:51.130Z,4.80
2022-09-07T13:09:34.960Z,2.60
2022-09-07T13:15:37.999Z,2.40
2022-09-07T13:18:06.506Z,2.70
2022-09-07T13:20:39.155Z,3.40
2022-09-07T13:23:25.104Z,2.17
2022-09-07T13:25:59.996Z,2.67
2022-09-07T13:28:52.546Z,4.27
2022-09-07T13:31:58.597Z,3.23
2022-09-07T13:34:50.099Z,5.53
2022-09-07T13:37:22.966Z,3.23
2022-09-07T13:39:55.584Z,4.07
2022-09-07T13:42:28.758Z,3.17
2022-09-07T13:44:58.281Z,4.03
2022-09-07T13:47:45.279Z,3.07
2022-09-07T13:50:29.051Z,2.20
2022-09-07T13:53:31.022Z,2.83
2022-09-07T13:56:15.696Z,2.40
2022-09-07T13:58:47.785Z,2.77
2022-09-07T14:01:20.247Z,2.80
2022-09-07T14:03:53.682Z,2.40
2022-09-07T14:06:34.265Z,2.67
2022-09-07T14:09:06.144Z,3.00
2022-09-07T14:11:46.282Z,2.67
2022-09-07T14:14:20.207Z,3.37
2022-09-07T14:16:54.273Z,3.47
2022-09-07T14:19:25.667Z,2.40
2022-09-07T14:22:03.049Z,7.27
2022-09-07T14:24:35.175Z,4.47
2022-09-07T14:27:06.586Z,3.53
2022-09-07T14:29:37.024Z,3.00
2022-09-07T14:32:10.741Z,3.87
2022-09-07T14:34:39.471Z,6.07
2022-09-07T14:37:13.280Z,4.67
2022-09-07T14:39:44.851Z,3.07
2022-09-07T14:42:19.735Z,3.20
2022-09-07T14:44:47.480Z,4.17
2022-09-07T14:47:29.406Z,5.30
2022-09-07T14:50:05.773Z,4.03
2022-09-07T14:52:43.023Z,3.27
2022-09-07T14:55:29.566Z,4.13
2022-09-07T14:58:25.466Z,4.77
2022-09-07T15:04:01.276Z,3.83
2022-09-07T15:09:30.898Z,4.17
2022-09-07T15:12:17.795Z,3.80
2022-09-07T15:14:47.987Z,6.73
2022-09-07T15:20:40.224Z,3.73
2022-09-07T15:23:12.071Z,4.73
2022-09-07T15:25:40.849Z,5.20
2022-09-07T15:34:10.108Z,3.73
2022-09-07T15:36:40.787Z,3.60
2022-09-07T15:39:19.040Z,5.13
2022-09-07T15:41:47.725Z,5.77
2022-09-07T15:44:16.300Z,5.03
2022-09-07T15:47:42.374Z,10.40
2022-09-07T15:49:33.803Z,6.57
2022-09-07T15:52:08.442Z,4.53
2022-09-07T15:54:39.435Z,5.00
2022-09-07T15:59:54.826Z,5.63
2022-09-07T16:05:11.107Z,6.07
2022-09-07T16:10:27.357Z,4.83
2022-09-07T16:13:09.694Z,6.53
2022-09-07T16:15:45.693Z,6.23
2022-09-07T16:18:17.508Z,5.63
2022-09-07T16:20:45.936Z,6.13
2022-09-07T16:23:16.488Z,6.23
2022-09-07T16:25:56.382Z,5.33
2022-09-07T16:28:24.190Z,5.90
2022-09-07T16:30:51.519Z,6.40
2022-09-07T16:33:20.275Z,5.60
2022-09-07T16:35:59.617Z,6.17
2022-09-07T16:38:46.123Z,7.13
2022-09-07T16:41:15.386Z,5.00
2022-09-07T16:43:43.606Z,6.90
2022-09-07T16:46:14.819Z,9.73
2022-09-07T16:48:44.283Z,6.57
2022-09-07T16:51:15.598Z,4.47
2022-09-07T16:53:43.577Z,6.47
2022-09-07T16:56:13.554Z,5.87
2022-09-07T16:58:43.592Z,5.40
2022-09-07T17:01:13.035Z,6.47
2022-09-07T17:03:41.344Z,6.23
2022-09-07T17:06:13.373Z,6.10
2022-09-07T17:08:42.361Z,5.13
2022-09-07T17:11:12.665Z,6.80
2022-09-07T17:13:42.081Z,7.93
2022-09-07T17:16:12.730Z,5.57
2022-09-07T17:21:33.254Z,7.00
2022-09-07T17:24:01.710Z,8.43
2022-09-07T17:26:32.451Z,7.43
2022-09-07T17:29:00.998Z,5.63
2022-09-07T17:34:19.941Z,6.37
2022-09-07T17:36:48.777Z,6.37
2022-09-07T17:39:18.139Z,5.80
2022-09-07T17:41:46.985Z,6.87
2022-09-07T17:44:14.489Z,6.97
2022-09-07T17:46:41.844Z,5.40
2022-09-07T17:49:13.910Z,5.57
2022-09-07T17:51:41.461Z,5.60
2022-09-07T17:54:15.660Z,5.73
2022-09-07T17:56:44.074Z,5.57
2022-09-07T18:01:59.202Z,13.60
2022-09-07T18:04:27.306Z,6.07
2022-09-07T18:06:55.661Z,5.73
2022-09-07T18:09:24.466Z,5.10
2022-09-07T18:11:51.726Z,5.97
2022-09-07T18:14:19.689Z,6.50
2022-09-07T18:16:49.943Z,5.53
2022-09-07T18:19:18.874Z,11.77
2022-09-07T18:21:48.024Z,5.83
2022-09-07T18:24:19.685Z,5.77
2022-09-07T18:26:52.303Z,6.53
2022-09-07T18:29:32.310Z,5.47
2022-09-07T18:32:04.777Z,5.87
2022-09-07T18:34:35.911Z,7.20
2022-09-07T18:37:03.589Z,7.27
2022-09-07T18:39:37.628Z,6.53
2022-09-07T18:42:07.770Z,6.47
2022-09-07T18:47:29.111Z,9.67
2022-09-07T18:49:58.032Z,7.73
2022-09-07T18:55:12.997Z,7.70
2022-09-07T18:57:41.971Z,6.83
2022-09-07T19:00:12.394Z,8.57
2022-09-07T19:02:39.730Z,7.30
2022-09-07T19:07:55.929Z,8.10
2022-09-07T19:10:23.215Z,8.03
2022-09-07T19:12:51.839Z,6.70
2022-09-07T19:15:20.529Z,6.50
2022-09-07T19:17:47.822Z,6.67
2022-09-07T19:20:15.361Z,7.20
2022-09-07T19:22:42.946Z,7.13
2022-09-07T19:25:10.515Z,6.43
2022-09-07T19:27:37.892Z,7.50
2022-09-07T19:30:08.110Z,7.20
2022-09-07T19:32:35.300Z,8.03
2022-09-07T19:35:02.627Z,8.30
2022-09-07T19:37:32.244Z,8.50
2022-09-07T19:39:59.884Z,6.97
2022-09-07T19:42:27.261Z,11.63
2022-09-07T19:44:54.933Z,9.43
2022-09-07T19:47:23.931Z,8.07
2022-09-07T19:49:52.276Z,7.17
2022-09-07T19:52:19.777Z,7.63
2022-09-07T19:54:47.012Z,8.53
2022-09-07T19:57:14.219Z,8.77
2022-09-07T19:59:41.498Z,9.40
2022-09-07T20:02:09.916Z,8.63
2022-09-07T20:04:38.526Z,8.30
2022-09-07T20:07:06.592Z,7.87
2022-09-07T20:09:33.854Z,6.93
2022-09-07T20:12:02.630Z,7.77
2022-09-07T20:14:29.844Z,7.33
2022-09-07T20:16:57.299Z,7.97
2022-09-07T20:19:24.707Z,8.80
2022-09-07T20:21:55.754Z,8.37
2022-09-07T20:24:23.354Z,8.83
2022-09-07T20:26:50.582Z,10.60
2022-09-07T20:29:33.268Z,8.60
2022-09-07T20:32:01.814Z,8.70
2022-09-07T20:34:29.969Z,9.10
2022-09-07T20:36:58.694Z,10.37
2022-09-07T20:39:26.049Z,8.83
2022-09-07T20:41:53.636Z,9.73
2022-09-07T20:44:20.873Z,9.53
2022-09-07T20:46:48.208Z,9.43
2022-09-07T20:49:15.626Z,9.30
2022-09-07T20:51:42.947Z,9.50
2022-09-07T20:54:11.757Z,9.40
2022-09-07T20:56:39.073Z,8.73
2022-09-07T20:59:06.840Z,9.17
2022-09-07T21:01:35.171Z,9.13
2022-09-07T21:04:04.037Z,8.70
2022-09-07T21:06:32.874Z,7.33
2022-09-07T21:09:01.238Z,8.27
2022-09-07T21:11:32.941Z,8.90
2022-09-07T21:14:06.054Z,7.93
2022-09-07T21:16:34.372Z,8.30
2022-09-07T21:19:04.158Z,9.67
2022-09-07T21:21:38.908Z,8.47
2022-09-07T21:24:14.425Z,8.23
2022-09-07T21:26:43.032Z,8.83
2022-09-07T21:29:17.052Z,9.00
2022-09-07T21:31:44.932Z,10.13
2022-09-07T21:34:12.593Z,9.37
2022-09-07T21:36:40.128Z,9.53
2022-09-07T21:39:10.384Z,10.67
2022-09-07T21:41:39.872Z,12.87
2022-09-07T21:44:11.663Z,10.87
2022-09-07T21:46:38.958Z,10.70
2022-09-07T21:49:06.700Z,11.33
2022-09-07T21:51:34.073Z,10.67
2022-09-07T21:54:01.867Z,11.50
2022-09-07T21:56:31.235Z,12.20
2022-09-07T21:59:01.554Z,12.10
2022-09-07T22:01:31.758Z,11.23
2022-09-07T22:04:01.952Z,11.53
2022-09-07T22:06:30.991Z,12.40
2022-09-07T22:08:59.292Z,11.70
2022-09-07T22:11:28.961Z,11.70
2022-09-07T22:13:59.007Z,11.57
2022-09-07T22:16:26.539Z,12.47
2022-09-07T22:18:55.519Z,12.50
2022-09-07T22:21:25.041Z,11.07
2022-09-07T22:23:56.295Z,11.87
2022-09-07T22:26:26.101Z,12.47
2022-09-07T22:28:53.723Z,11.97
2022-09-07T22:31:24.382Z,12.10
2022-09-07T22:33:56.220Z,12.07
2022-09-07T22:36:26.069Z,11.60
2022-09-07T22:38:55.709Z,12.27
2022-09-07T22:41:26.426Z,13.17
2022-09-07T22:43:54.148Z,12.37
2022-09-07T22:46:24.160Z,11.90
2022-09-07T22:48:55.353Z,12.93
2022-09-07T22:51:26.711Z,11.90
2022-09-07T22:53:55.042Z,11.93
2022-09-07T22:56:26.580Z,11.70
2022-09-07T22:58:56.585Z,11.63
2022-09-07T23:01:26.212Z,12.47
2022-09-07T23:03:55.368Z,12.67
2022-09-07T23:06:27.717Z,12.33
2022-09-07T23:08:58.019Z,11.00
2022-09-07T23:11:25.826Z,11.53
2022-09-07T23:13:54.566Z,11.70
2022-09-07T23:16:23.141Z,12.10
2022-09-07T23:18:50.708Z,11.93
2022-09-07T23:21:20.053Z,12.03
2022-09-07T23:23:51.322Z,12.10
2022-09-07T23:26:19.354Z,12.60
2022-09-07T23:28:50.857Z,12.23
2022-09-07T23:31:18.208Z,13.20
2022-09-07T23:33:45.529Z,12.07
2022-09-07T23:36:12.951Z,10.73
2022-09-07T23:38:41.660Z,12.30
2022-09-07T23:41:08.928Z,12.33
2022-09-07T23:43:36.681Z,12.07
2022-09-07T23:46:04.045Z,12.33
2022-09-07T23:48:31.511Z,11.20
2022-09-07T23:50:58.790Z,12.27
2022-09-07T23:53:26.083Z,11.43
2022-09-07T23:55:54.623Z,12.80
2022-09-07T23:58:23.114Z,12.13
